sensor_id;sensor_type;location;lat;lon;timestamp;temperature;humidity
15103;DHT22;7652;53.584;9.998;2023-03-01T00:01:01;2.30;99.90
15103;DHT22;7652;53.584;9.998;2023-03-01T00:04:05;2.10;99.90
15103;DHT22;7652;53.584;9.998;2023-03-01T00:07:08;2.20;99.90
15103;DHT22;7652;53.584;9.998;2023-03-01T00:10:11;2.40;99.90
15103;DHT22;7652;53.584;9.998;2023-03-01T00:13:14;2.50;99.90
15103;DHT22;7652;53.584;9.998;2023-03-01T00:16:19;2.50;99.90
15103;DHT22;7652;53.584;9.998;2023-03-01T00:19:24;2.60;99.90
15103;DHT22;7652;53.584;9.998;2023-03-01T00:22:27;2.60;99.90
15103;DHT22;7652;53.584;9.998;2023-03-01T00:25:31;2.50;99.90
15103;DHT22;7652;53.584;9.998;2023-03-01T00:28:34;2.50;99.90
15103;DHT22;7652;53.584;9.998;2023-03-01T00:31:37;2.40;99.90
15103;DHT22;7652;53.584;9.998;2023-03-01T00:34:41;2.30;99.90
15103;DHT22;7652;53.584;9.998;2023-03-01T00:37:44;2.30;99.90
15103;DHT22;7652;53.584;9.998;2023-03-01T00:40:47;2.30;99.90
15103;DHT22;7652;53.584;9.998;2023-03-01T00:43:50;2.40;99.90
15103;DHT22;7652;53.584;9.998;2023-03-01T00:46:53;2.40;99.90
15103;DHT22;7652;53.584;9.998;2023-03-01T00:49:58;2.40;99.90
15103;DHT22;7652;53.584;9.998;2023-03-01T00:53:01;2.40;99.90
15103;DHT22;7652;53.584;9.998;2023-03-01T00:56:05;2.30;99.90
15103;DHT22;7652;53.584;9.998;2023-03-01T00:59:08;2.30;99.90
15103;DHT22;7652;53.584;9.998;2023-03-01T01:02:11;2.30;99.90
15103;DHT22;7652;53.584;9.998;2023-03-01T01:05:16;2.30;99.90
15103;DHT22;7652;53.584;9.998;2023-03-01T01:08:22;2.30;99.90
15103;DHT22;7652;53.584;9.998;2023-03-01T01:11:27;2.30;99.90
15103;DHT22;7652;53.584;9.998;2023-03-01T01:14:30;2.30;99.90
15103;DHT22;7652;53.584;9.998;2023-03-01T01:17:33;2.30;99.90
15103;DHT22;7652;53.584;9.998;2023-03-01T01:20:38;2.30;99.90
15103;DHT22;7652;53.584;9.998;2023-03-01T01:23:42;2.30;99.90
15103;DHT22;7652;53.584;9.998;2023-03-01T01:26:45;2.30;99.90
15103;DHT22;7652;53.584;9.998;2023-03-01T01:29:48;2.30;99.90
15103;DHT22;7652;53.584;9.998;2023-03-01T01:32:52;2.30;99.90
15103;DHT22;7652;53.584;9.998;2023-03-01T01:35:56;2.30;99.90
15103;DHT22;7652;53.584;9.998;2023-03-01T01:39:00;2.30;99.90
15103;DHT22;7652;53.584;9.998;2023-03-01T01:42:03;2.30;99.90
15103;DHT22;7652;53.584;9.998;2023-03-01T01:45:27;2.30;99.90
15103;DHT22;7652;53.584;9.998;2023-03-01T01:48:37;2.30;99.90
15103;DHT22;7652;53.584;9.998;2023-03-01T01:51:45;2.30;99.90
15103;DHT22;7652;53.584;9.998;2023-03-01T01:54:53;2.30;99.90
15103;DHT22;7652;53.584;9.998;2023-03-01T01:57:59;2.40;99.90
15103;DHT22;7652;53.584;9.998;2023-03-01T02:01:04;2.40;99.90
15103;DHT22;7652;53.584;9.998;2023-03-01T02:04:08;2.50;99.90
15103;DHT22;7652;53.584;9.998;2023-03-01T02:07:15;2.60;99.90
15103;DHT22;7652;53.584;9.998;2023-03-01T02:10:19;2.70;99.90
15103;DHT22;7652;53.584;9.998;2023-03-01T02:13:22;2.70;99.90
15103;DHT22;7652;53.584;9.998;2023-03-01T02:16:26;2.80;99.90
15103;DHT22;7652;53.584;9.998;2023-03-01T02:19:40;2.80;99.90
15103;DHT22;7652;53.584;9.998;2023-03-01T02:22:47;2.70;99.90
15103;DHT22;7652;53.584;9.998;2023-03-01T02:25:56;2.60;99.90
15103;DHT22;7652;53.584;9.998;2023-03-01T02:29:02;2.60;99.90
15103;DHT22;7652;53.584;9.998;2023-03-01T02:32:07;2.60;99.90
15103;DHT22;7652;53.584;9.998;2023-03-01T02:35:13;2.60;99.90
15103;DHT22;7652;53.584;9.998;2023-03-01T02:38:17;2.60;99.90
15103;DHT22;7652;53.584;9.998;2023-03-01T02:41:22;2.60;99.90
15103;DHT22;7652;53.584;9.998;2023-03-01T02:44:27;2.70;99.90
15103;DHT22;7652;53.584;9.998;2023-03-01T02:47:30;2.70;99.90
15103;DHT22;7652;53.584;9.998;2023-03-01T02:50:59;2.70;99.90
15103;DHT22;7652;53.584;9.998;2023-03-01T02:54:12;2.70;99.90
15103;DHT22;7652;53.584;9.998;2023-03-01T02:57:16;2.70;99.90
15103;DHT22;7652;53.584;9.998;2023-03-01T03:00:23;2.70;99.90
15103;DHT22;7652;53.584;9.998;2023-03-01T03:03:27;2.70;99.90
15103;DHT22;7652;53.584;9.998;2023-03-01T03:06:30;2.60;99.90
15103;DHT22;7652;53.584;9.998;2023-03-01T03:09:33;2.60;99.90
15103;DHT22;7652;53.584;9.998;2023-03-01T03:12:37;2.50;99.90
15103;DHT22;7652;53.584;9.998;2023-03-01T03:15:42;2.50;99.90
15103;DHT22;7652;53.584;9.998;2023-03-01T03:18:45;2.40;99.90
15103;DHT22;7652;53.584;9.998;2023-03-01T03:21:48;2.50;99.90
15103;DHT22;7652;53.584;9.998;2023-03-01T03:24:51;2.50;99.90
15103;DHT22;7652;53.584;9.998;2023-03-01T03:27:55;2.50;99.90
15103;DHT22;7652;53.584;9.998;2023-03-01T03:31:01;2.60;99.90
15103;DHT22;7652;53.584;9.998;2023-03-01T03:34:05;2.60;99.90
15103;DHT22;7652;53.584;9.998;2023-03-01T03:37:08;2.70;99.90
15103;DHT22;7652;53.584;9.998;2023-03-01T03:40:33;2.80;99.90
15103;DHT22;7652;53.584;9.998;2023-03-01T03:43:37;2.90;99.90
15103;DHT22;7652;53.584;9.998;2023-03-01T03:46:42;3.00;99.90
15103;DHT22;7652;53.584;9.998;2023-03-01T03:49:45;3.00;99.90
15103;DHT22;7652;53.584;9.998;2023-03-01T03:52:48;3.10;99.90
15103;DHT22;7652;53.584;9.998;2023-03-01T03:55:52;3.20;99.90
15103;DHT22;7652;53.584;9.998;2023-03-01T03:58:55;3.10;99.90
15103;DHT22;7652;53.584;9.998;2023-03-01T04:01:59;3.10;99.90
15103;DHT22;7652;53.584;9.998;2023-03-01T04:05:02;3.20;99.90
15103;DHT22;7652;53.584;9.998;2023-03-01T04:08:06;3.20;99.90
15103;DHT22;7652;53.584;9.998;2023-03-01T04:11:09;3.20;99.90
15103;DHT22;7652;53.584;9.998;2023-03-01T04:14:31;3.30;99.90
15103;DHT22;7652;53.584;9.998;2023-03-01T04:17:36;3.40;99.90
15103;DHT22;7652;53.584;9.998;2023-03-01T04:20:42;3.40;99.90
15103;DHT22;7652;53.584;9.998;2023-03-01T04:23:46;3.50;99.90
15103;DHT22;7652;53.584;9.998;2023-03-01T04:26:49;3.50;99.90
15103;DHT22;7652;53.584;9.998;2023-03-01T04:29:52;3.60;99.90
15103;DHT22;7652;53.584;9.998;2023-03-01T04:32:56;3.60;99.90
15103;DHT22;7652;53.584;9.998;2023-03-01T04:35:59;3.60;99.90
15103;DHT22;7652;53.584;9.998;2023-03-01T04:39:07;3.60;99.90
15103;DHT22;7652;53.584;9.998;2023-03-01T04:42:14;3.60;99.90
15103;DHT22;7652;53.584;9.998;2023-03-01T04:45:18;3.50;99.90
15103;DHT22;7652;53.584;9.998;2023-03-01T04:48:22;3.60;99.90
15103;DHT22;7652;53.584;9.998;2023-03-01T04:51:26;3.60;99.90
15103;DHT22;7652;53.584;9.998;2023-03-01T04:54:29;3.40;99.90
15103;DHT22;7652;53.584;9.998;2023-03-01T04:57:32;3.50;99.90
15103;DHT22;7652;53.584;9.998;2023-03-01T05:00:36;3.60;99.90
15103;DHT22;7652;53.584;9.998;2023-03-01T05:03:41;3.70;99.90
15103;DHT22;7652;53.584;9.998;2023-03-01T05:06:44;3.70;99.90
15103;DHT22;7652;53.584;9.998;2023-03-01T05:09:47;3.80;99.90
15103;DHT22;7652;53.584;9.998;2023-03-01T05:12:51;3.80;99.90
15103;DHT22;7652;53.584;9.998;2023-03-01T05:15:56;3.80;99.90
15103;DHT22;7652;53.584;9.998;2023-03-01T05:19:01;3.80;99.90
15103;DHT22;7652;53.584;9.998;2023-03-01T05:22:13;3.90;99.90
15103;DHT22;7652;53.584;9.998;2023-03-01T05:25:16;3.60;99.90
15103;DHT22;7652;53.584;9.998;2023-03-01T05:28:20;3.60;99.90
15103;DHT22;7652;53.584;9.998;2023-03-01T05:31:23;3.60;99.90
15103;DHT22;7652;53.584;9.998;2023-03-01T05:34:29;3.70;99.90
15103;DHT22;7652;53.584;9.998;2023-03-01T05:37:32;3.80;99.90
15103;DHT22;7652;53.584;9.998;2023-03-01T05:40:35;3.80;99.90
15103;DHT22;7652;53.584;9.998;2023-03-01T05:43:38;3.80;99.90
15103;DHT22;7652;53.584;9.998;2023-03-01T05:46:43;3.80;99.90
15103;DHT22;7652;53.584;9.998;2023-03-01T05:49:48;3.70;99.90
15103;DHT22;7652;53.584;9.998;2023-03-01T05:52:56;3.80;99.90
15103;DHT22;7652;53.584;9.998;2023-03-01T05:55:59;3.80;99.90
15103;DHT22;7652;53.584;9.998;2023-03-01T05:59:05;3.60;99.90
15103;DHT22;7652;53.584;9.998;2023-03-01T06:02:08;3.70;99.90
15103;DHT22;7652;53.584;9.998;2023-03-01T06:05:14;3.80;99.90
15103;DHT22;7652;53.584;9.998;2023-03-01T06:08:17;3.80;99.90
15103;DHT22;7652;53.584;9.998;2023-03-01T06:11:22;3.90;99.90
15103;DHT22;7652;53.584;9.998;2023-03-01T06:14:25;3.80;99.90
15103;DHT22;7652;53.584;9.998;2023-03-01T06:17:29;3.70;99.90
15103;DHT22;7652;53.584;9.998;2023-03-01T06:20:34;3.70;99.90
15103;DHT22;7652;53.584;9.998;2023-03-01T06:23:37;3.70;99.90
15103;DHT22;7652;53.584;9.998;2023-03-01T06:26:41;3.60;99.90
15103;DHT22;7652;53.584;9.998;2023-03-01T06:29:44;3.60;99.90
15103;DHT22;7652;53.584;9.998;2023-03-01T06:32:48;3.70;99.90
15103;DHT22;7652;53.584;9.998;2023-03-01T06:35:54;3.70;99.90
15103;DHT22;7652;53.584;9.998;2023-03-01T06:38:57;3.80;99.90
15103;DHT22;7652;53.584;9.998;2023-03-01T06:42:00;3.80;99.90
15103;DHT22;7652;53.584;9.998;2023-03-01T06:45:05;3.90;99.90
15103;DHT22;7652;53.584;9.998;2023-03-01T06:48:08;4.00;99.90
15103;DHT22;7652;53.584;9.998;2023-03-01T06:51:12;4.10;99.90
15103;DHT22;7652;53.584;9.998;2023-03-01T06:54:16;4.20;99.90
15103;DHT22;7652;53.584;9.998;2023-03-01T06:57:19;4.10;99.90
15103;DHT22;7652;53.584;9.998;2023-03-01T07:00:24;4.20;99.90
15103;DHT22;7652;53.584;9.998;2023-03-01T07:03:27;4.30;99.90
15103;DHT22;7652;53.584;9.998;2023-03-01T07:06:32;4.20;99.90
15103;DHT22;7652;53.584;9.998;2023-03-01T07:09:35;4.40;99.90
15103;DHT22;7652;53.584;9.998;2023-03-01T07:12:38;4.30;99.90
15103;DHT22;7652;53.584;9.998;2023-03-01T07:15:42;4.50;99.90
15103;DHT22;7652;53.584;9.998;2023-03-01T07:18:46;4.50;99.90
15103;DHT22;7652;53.584;9.998;2023-03-01T07:21:50;4.50;99.90
15103;DHT22;7652;53.584;9.998;2023-03-01T07:24:53;4.60;99.90
15103;DHT22;7652;53.584;9.998;2023-03-01T07:27:56;4.70;99.90
15103;DHT22;7652;53.584;9.998;2023-03-01T07:31:01;4.80;99.90
15103;DHT22;7652;53.584;9.998;2023-03-01T07:34:04;4.70;99.90
15103;DHT22;7652;53.584;9.998;2023-03-01T07:37:08;4.80;99.90
15103;DHT22;7652;53.584;9.998;2023-03-01T07:40:12;4.80;99.90
15103;DHT22;7652;53.584;9.998;2023-03-01T07:43:15;4.80;99.90
15103;DHT22;7652;53.584;9.998;2023-03-01T07:46:18;5.00;99.90
15103;DHT22;7652;53.584;9.998;2023-03-01T07:49:22;5.00;99.90
15103;DHT22;7652;53.584;9.998;2023-03-01T07:52:26;4.90;99.90
15103;DHT22;7652;53.584;9.998;2023-03-01T07:55:29;5.00;99.90
15103;DHT22;7652;53.584;9.998;2023-03-01T07:58:34;5.10;99.90
15103;DHT22;7652;53.584;9.998;2023-03-01T08:01:37;5.20;99.90
15103;DHT22;7652;53.584;9.998;2023-03-01T08:04:40;5.20;99.90
15103;DHT22;7652;53.584;9.998;2023-03-01T08:07:45;5.40;99.90
15103;DHT22;7652;53.584;9.998;2023-03-01T08:10:48;5.40;99.90
15103;DHT22;7652;53.584;9.998;2023-03-01T08:13:51;5.60;99.90
15103;DHT22;7652;53.584;9.998;2023-03-01T08:16:55;5.70;99.90
15103;DHT22;7652;53.584;9.998;2023-03-01T08:19:58;5.80;99.90
15103;DHT22;7652;53.584;9.998;2023-03-01T08:23:02;5.90;99.90
15103;DHT22;7652;53.584;9.998;2023-03-01T08:26:07;6.00;99.90
15103;DHT22;7652;53.584;9.998;2023-03-01T08:29:10;6.00;99.90
15103;DHT22;7652;53.584;9.998;2023-03-01T08:32:13;6.10;99.90
15103;DHT22;7652;53.584;9.998;2023-03-01T08:35:17;6.20;99.90
15103;DHT22;7652;53.584;9.998;2023-03-01T08:38:21;6.30;99.90
15103;DHT22;7652;53.584;9.998;2023-03-01T08:41:24;6.40;99.90
15103;DHT22;7652;53.584;9.998;2023-03-01T08:44:28;6.60;99.90
15103;DHT22;7652;53.584;9.998;2023-03-01T08:47:31;6.60;99.90
15103;DHT22;7652;53.584;9.998;2023-03-01T08:50:35;6.80;99.90
15103;DHT22;7652;53.584;9.998;2023-03-01T08:53:39;6.70;99.90
15103;DHT22;7652;53.584;9.998;2023-03-01T08:56:42;6.90;99.90
15103;DHT22;7652;53.584;9.998;2023-03-01T08:59:45;7.10;99.90
15103;DHT22;7652;53.584;9.998;2023-03-01T09:02:49;7.20;99.90
15103;DHT22;7652;53.584;9.998;2023-03-01T09:05:52;7.10;99.90
15103;DHT22;7652;53.584;9.998;2023-03-01T09:08:57;6.90;99.90
15103;DHT22;7652;53.584;9.998;2023-03-01T09:12:00;7.20;99.90
15103;DHT22;7652;53.584;9.998;2023-03-01T09:15:04;7.20;99.90
15103;DHT22;7652;53.584;9.998;2023-03-01T09:18:07;7.00;99.90
15103;DHT22;7652;53.584;9.998;2023-03-01T09:21:12;6.80;99.90
15103;DHT22;7652;53.584;9.998;2023-03-01T09:24:18;6.80;99.90
15103;DHT22;7652;53.584;9.998;2023-03-01T09:27:22;7.10;99.90
15103;DHT22;7652;53.584;9.998;2023-03-01T09:30:26;7.20;99.90
15103;DHT22;7652;53.584;9.998;2023-03-01T09:33:30;7.20;99.90
15103;DHT22;7652;53.584;9.998;2023-03-01T09:36:34;7.00;99.90
15103;DHT22;7652;53.584;9.998;2023-03-01T09:39:39;7.00;99.90
15103;DHT22;7652;53.584;9.998;2023-03-01T09:42:50;7.10;99.90
15103;DHT22;7652;53.584;9.998;2023-03-01T09:45:55;7.00;99.90
15103;DHT22;7652;53.584;9.998;2023-03-01T09:49:05;7.10;99.90
15103;DHT22;7652;53.584;9.998;2023-03-01T09:52:16;7.00;99.90
15103;DHT22;7652;53.584;9.998;2023-03-01T09:55:26;7.20;99.90
15103;DHT22;7652;53.584;9.998;2023-03-01T09:58:46;7.70;99.90
15103;DHT22;7652;53.584;9.998;2023-03-01T10:01:53;7.90;99.90
15103;DHT22;7652;53.584;9.998;2023-03-01T10:05:10;8.20;99.90
15103;DHT22;7652;53.584;9.998;2023-03-01T10:08:34;8.50;99.90
15103;DHT22;7652;53.584;9.998;2023-03-01T10:11:44;9.10;99.90
15103;DHT22;7652;53.584;9.998;2023-03-01T10:14:54;9.50;99.90
15103;DHT22;7652;53.584;9.998;2023-03-01T10:18:03;9.40;99.90
15103;DHT22;7652;53.584;9.998;2023-03-01T10:21:14;9.60;99.90
15103;DHT22;7652;53.584;9.998;2023-03-01T10:24:19;10.00;99.90
15103;DHT22;7652;53.584;9.998;2023-03-01T10:27:26;10.10;99.90
15103;DHT22;7652;53.584;9.998;2023-03-01T10:30:35;10.00;99.90
15103;DHT22;7652;53.584;9.998;2023-03-01T10:33:41;9.80;99.90
15103;DHT22;7652;53.584;9.998;2023-03-01T10:36:47;10.10;99.90
15103;DHT22;7652;53.584;9.998;2023-03-01T10:39:58;10.60;99.90
15103;DHT22;7652;53.584;9.998;2023-03-01T10:43:05;10.60;99.90
15103;DHT22;7652;53.584;9.998;2023-03-01T10:46:25;10.60;99.90
15103;DHT22;7652;53.584;9.998;2023-03-01T10:49:29;10.70;99.90
15103;DHT22;7652;53.584;9.998;2023-03-01T10:52:35;10.60;99.90
15103;DHT22;7652;53.584;9.998;2023-03-01T10:55:39;10.00;99.90
15103;DHT22;7652;53.584;9.998;2023-03-01T10:58:58;10.20;99.90
15103;DHT22;7652;53.584;9.998;2023-03-01T11:02:09;9.80;99.90
15103;DHT22;7652;53.584;9.998;2023-03-01T11:05:26;10.60;99.90
15103;DHT22;7652;53.584;9.998;2023-03-01T11:08:40;11.30;99.90
15103;DHT22;7652;53.584;9.998;2023-03-01T11:11:44;11.30;99.90
15103;DHT22;7652;53.584;9.998;2023-03-01T11:14:51;11.40;99.90
15103;DHT22;7652;53.584;9.998;2023-03-01T11:17:56;11.10;99.90
15103;DHT22;7652;53.584;9.998;2023-03-01T11:21:15;12.20;99.90
15103;DHT22;7652;53.584;9.998;2023-03-01T11:24:20;13.30;99.90
15103;DHT22;7652;53.584;9.998;2023-03-01T11:27:26;14.10;99.90
15103;DHT22;7652;53.584;9.998;2023-03-01T11:30:35;14.50;99.90
15103;DHT22;7652;53.584;9.998;2023-03-01T11:33:45;14.20;99.90
15103;DHT22;7652;53.584;9.998;2023-03-01T11:36:53;14.10;99.90
15103;DHT22;7652;53.584;9.998;2023-03-01T11:40:10;14.70;99.90
15103;DHT22;7652;53.584;9.998;2023-03-01T11:43:19;15.80;99.90
15103;DHT22;7652;53.584;9.998;2023-03-01T11:46:51;15.80;99.90
15103;DHT22;7652;53.584;9.998;2023-03-01T11:50:26;16.40;99.30
15103;DHT22;7652;53.584;9.998;2023-03-01T11:53:51;16.30;99.60
15103;DHT22;7652;53.584;9.998;2023-03-01T11:57:01;17.80;97.30
15103;DHT22;7652;53.584;9.998;2023-03-01T12:00:14;17.10;97.50
15103;DHT22;7652;53.584;9.998;2023-03-01T12:03:32;17.00;98.20
15103;DHT22;7652;53.584;9.998;2023-03-01T12:06:55;18.40;96.00
15103;DHT22;7652;53.584;9.998;2023-03-01T12:13:59;20.50;90.90
15103;DHT22;7652;53.584;9.998;2023-03-01T12:20:45;21.00;85.20
15103;DHT22;7652;53.584;9.998;2023-03-01T12:27:53;17.70;92.70
15103;DHT22;7652;53.584;9.998;2023-03-01T12:31:08;19.00;91.70
15103;DHT22;7652;53.584;9.998;2023-03-01T12:34:30;19.40;89.40
15103;DHT22;7652;53.584;9.998;2023-03-01T12:37:46;17.20;92.60
15103;DHT22;7652;53.584;9.998;2023-03-01T12:41:07;18.80;91.40
15103;DHT22;7652;53.584;9.998;2023-03-01T12:44:37;19.40;90.50
15103;DHT22;7652;53.584;9.998;2023-03-01T12:47:57;19.30;88.80
15103;DHT22;7652;53.584;9.998;2023-03-01T12:51:07;18.80;89.60
15103;DHT22;7652;53.584;9.998;2023-03-01T12:54:20;19.70;89.70
15103;DHT22;7652;53.584;9.998;2023-03-01T12:57:28;19.90;88.60
15103;DHT22;7652;53.584;9.998;2023-03-01T13:00:41;18.90;90.20
15103;DHT22;7652;53.584;9.998;2023-03-01T13:04:10;19.50;90.60
15103;DHT22;7652;53.584;9.998;2023-03-01T13:07:22;20.20;88.50
15103;DHT22;7652;53.584;9.998;2023-03-01T13:10:33;20.10;86.60
15103;DHT22;7652;53.584;9.998;2023-03-01T13:13:37;20.40;86.30
15103;DHT22;7652;53.584;9.998;2023-03-01T13:16:41;20.70;83.50
15103;DHT22;7652;53.584;9.998;2023-03-01T13:19:56;21.50;82.60
15103;DHT22;7652;53.584;9.998;2023-03-01T13:23:05;20.30;81.60
15103;DHT22;7652;53.584;9.998;2023-03-01T13:26:13;19.40;85.20
15103;DHT22;7652;53.584;9.998;2023-03-01T13:29:26;19.80;87.60
15103;DHT22;7652;53.584;9.998;2023-03-01T13:32:30;20.70;83.80
15103;DHT22;7652;53.584;9.998;2023-03-01T13:35:45;21.20;81.90
15103;DHT22;7652;53.584;9.998;2023-03-01T13:38:56;19.80;85.30
15103;DHT22;7652;53.584;9.998;2023-03-01T13:42:01;19.70;86.60
15103;DHT22;7652;53.584;9.998;2023-03-01T13:45:21;20.60;83.30
15103;DHT22;7652;53.584;9.998;2023-03-01T13:48:27;20.90;82.60
15103;DHT22;7652;53.584;9.998;2023-03-01T13:51:30;20.70;82.20
15103;DHT22;7652;53.584;9.998;2023-03-01T13:54:35;20.70;82.60
15103;DHT22;7652;53.584;9.998;2023-03-01T13:57:41;19.40;86.20
15103;DHT22;7652;53.584;9.998;2023-03-01T14:00:44;18.90;87.80
15103;DHT22;7652;53.584;9.998;2023-03-01T14:03:47;18.30;89.20
15103;DHT22;7652;53.584;9.998;2023-03-01T14:06:51;18.20;90.40
15103;DHT22;7652;53.584;9.998;2023-03-01T14:09:56;18.70;89.10
15103;DHT22;7652;53.584;9.998;2023-03-01T14:13:10;17.00;91.40
15103;DHT22;7652;53.584;9.998;2023-03-01T14:16:24;16.30;93.30
15103;DHT22;7652;53.584;9.998;2023-03-01T14:19:33;15.70;93.80
15103;DHT22;7652;53.584;9.998;2023-03-01T14:22:37;14.80;96.70
15103;DHT22;7652;53.584;9.998;2023-03-01T14:25:47;14.30;98.10
15103;DHT22;7652;53.584;9.998;2023-03-01T14:28:52;14.00;97.70
15103;DHT22;7652;53.584;9.998;2023-03-01T14:32:08;13.40;99.70
15103;DHT22;7652;53.584;9.998;2023-03-01T14:35:21;13.10;99.90
15103;DHT22;7652;53.584;9.998;2023-03-01T14:38:30;12.80;99.90
15103;DHT22;7652;53.584;9.998;2023-03-01T14:41:35;12.10;99.90
15103;DHT22;7652;53.584;9.998;2023-03-01T14:44:41;12.00;99.90
15103;DHT22;7652;53.584;9.998;2023-03-01T14:47:45;12.00;99.90
15103;DHT22;7652;53.584;9.998;2023-03-01T14:50:48;11.90;99.90
15103;DHT22;7652;53.584;9.998;2023-03-01T14:53:52;11.60;99.90
15103;DHT22;7652;53.584;9.998;2023-03-01T14:56:59;11.10;99.90
15103;DHT22;7652;53.584;9.998;2023-03-01T15:00:07;11.00;99.90
15103;DHT22;7652;53.584;9.998;2023-03-01T15:03:13;10.50;99.90
15103;DHT22;7652;53.584;9.998;2023-03-01T15:06:19;10.50;99.90
15103;DHT22;7652;53.584;9.998;2023-03-01T15:09:23;10.60;99.90
15103;DHT22;7652;53.584;9.998;2023-03-01T15:12:37;10.60;99.90
15103;DHT22;7652;53.584;9.998;2023-03-01T15:15:43;10.70;99.90
15103;DHT22;7652;53.584;9.998;2023-03-01T15:18:49;10.60;99.90
15103;DHT22;7652;53.584;9.998;2023-03-01T15:21:53;10.60;99.90
15103;DHT22;7652;53.584;9.998;2023-03-01T15:24:57;10.60;99.90
15103;DHT22;7652;53.584;9.998;2023-03-01T15:28:01;10.30;99.90
15103;DHT22;7652;53.584;9.998;2023-03-01T15:31:16;10.20;99.90
15103;DHT22;7652;53.584;9.998;2023-03-01T15:34:24;10.00;99.90
15103;DHT22;7652;53.584;9.998;2023-03-01T15:37:49;10.00;99.90
15103;DHT22;7652;53.584;9.998;2023-03-01T15:40:52;10.10;99.90
15103;DHT22;7652;53.584;9.998;2023-03-01T15:43:56;10.10;99.90
15103;DHT22;7652;53.584;9.998;2023-03-01T15:47:01;10.10;99.90
15103;DHT22;7652;53.584;9.998;2023-03-01T15:50:11;10.00;99.90
15103;DHT22;7652;53.584;9.998;2023-03-01T15:53:17;9.80;99.90
15103;DHT22;7652;53.584;9.998;2023-03-01T15:56:20;9.70;99.90
15103;DHT22;7652;53.584;9.998;2023-03-01T15:59:23;9.70;99.90
15103;DHT22;7652;53.584;9.998;2023-03-01T16:02:28;9.50;99.90
15103;DHT22;7652;53.584;9.998;2023-03-01T16:05:33;9.50;99.90
15103;DHT22;7652;53.584;9.998;2023-03-01T16:08:36;9.50;99.90
15103;DHT22;7652;53.584;9.998;2023-03-01T16:11:39;9.40;99.90
15103;DHT22;7652;53.584;9.998;2023-03-01T16:14:44;9.40;99.90
15103;DHT22;7652;53.584;9.998;2023-03-01T16:17:48;9.30;99.90
15103;DHT22;7652;53.584;9.998;2023-03-01T16:20:51;9.20;99.90
15103;DHT22;7652;53.584;9.998;2023-03-01T16:23:55;9.20;99.90
15103;DHT22;7652;53.584;9.998;2023-03-01T16:26:58;9.00;99.90
15103;DHT22;7652;53.584;9.998;2023-03-01T16:30:01;8.90;99.90
15103;DHT22;7652;53.584;9.998;2023-03-01T16:33:06;8.80;99.90
15103;DHT22;7652;53.584;9.998;2023-03-01T16:36:30;8.70;99.90
15103;DHT22;7652;53.584;9.998;2023-03-01T16:39:33;8.60;99.90
15103;DHT22;7652;53.584;9.998;2023-03-01T16:42:36;8.50;99.90
15103;DHT22;7652;53.584;9.998;2023-03-01T16:45:41;8.50;99.90
15103;DHT22;7652;53.584;9.998;2023-03-01T16:48:49;8.40;99.90
15103;DHT22;7652;53.584;9.998;2023-03-01T16:51:53;8.40;99.90
15103;DHT22;7652;53.584;9.998;2023-03-01T16:54:56;8.30;99.90
15103;DHT22;7652;53.584;9.998;2023-03-01T16:57:59;8.20;99.90
15103;DHT22;7652;53.584;9.998;2023-03-01T17:01:07;8.10;99.90
15103;DHT22;7652;53.584;9.998;2023-03-01T17:04:12;8.00;99.90
15103;DHT22;7652;53.584;9.998;2023-03-01T17:07:15;8.00;99.90
15103;DHT22;7652;53.584;9.998;2023-03-01T17:10:18;7.90;99.90
15103;DHT22;7652;53.584;9.998;2023-03-01T17:13:23;7.80;99.90
15103;DHT22;7652;53.584;9.998;2023-03-01T17:16:26;7.70;99.90
15103;DHT22;7652;53.584;9.998;2023-03-01T17:19:30;7.60;99.90
15103;DHT22;7652;53.584;9.998;2023-03-01T17:22:33;7.40;99.90
15103;DHT22;7652;53.584;9.998;2023-03-01T17:25:41;7.30;99.90
15103;DHT22;7652;53.584;9.998;2023-03-01T17:28:45;7.20;99.90
15103;DHT22;7652;53.584;9.998;2023-03-01T17:31:52;7.20;99.90
15103;DHT22;7652;53.584;9.998;2023-03-01T17:34:58;7.20;99.90
15103;DHT22;7652;53.584;9.998;2023-03-01T17:38:01;7.20;99.90
15103;DHT22;7652;53.584;9.998;2023-03-01T17:41:04;7.00;99.90
15103;DHT22;7652;53.584;9.998;2023-03-01T17:44:07;7.00;99.90
15103;DHT22;7652;53.584;9.998;2023-03-01T17:47:10;7.00;99.90
15103;DHT22;7652;53.584;9.998;2023-03-01T17:50:15;6.80;99.90
15103;DHT22;7652;53.584;9.998;2023-03-01T17:53:18;6.70;99.90
15103;DHT22;7652;53.584;9.998;2023-03-01T17:56:23;6.60;99.90
15103;DHT22;7652;53.584;9.998;2023-03-01T17:59:26;6.50;99.90
15103;DHT22;7652;53.584;9.998;2023-03-01T18:02:31;6.40;99.90
15103;DHT22;7652;53.584;9.998;2023-03-01T18:05:36;6.10;99.90
15103;DHT22;7652;53.584;9.998;2023-03-01T18:08:39;5.80;99.90
15103;DHT22;7652;53.584;9.998;2023-03-01T18:11:42;5.80;99.90
15103;DHT22;7652;53.584;9.998;2023-03-01T18:14:49;5.60;99.90
15103;DHT22;7652;53.584;9.998;2023-03-01T18:17:54;5.60;99.90
15103;DHT22;7652;53.584;9.998;2023-03-01T18:20:59;5.50;99.90
15103;DHT22;7652;53.584;9.998;2023-03-01T18:24:03;5.50;99.90
15103;DHT22;7652;53.584;9.998;2023-03-01T18:27:06;5.30;99.90
15103;DHT22;7652;53.584;9.998;2023-03-01T18:30:12;5.30;99.90
15103;DHT22;7652;53.584;9.998;2023-03-01T18:33:15;5.30;99.90
15103;DHT22;7652;53.584;9.998;2023-03-01T18:36:22;5.20;99.90
15103;DHT22;7652;53.584;9.998;2023-03-01T18:39:25;5.00;99.90
15103;DHT22;7652;53.584;9.998;2023-03-01T18:42:28;4.90;99.90
15103;DHT22;7652;53.584;9.998;2023-03-01T18:45:31;4.90;99.90
15103;DHT22;7652;53.584;9.998;2023-03-01T18:48:34;4.80;99.90
15103;DHT22;7652;53.584;9.998;2023-03-01T18:51:40;4.60;99.90
15103;DHT22;7652;53.584;9.998;2023-03-01T18:54:43;4.60;99.90
15103;DHT22;7652;53.584;9.998;2023-03-01T18:57:46;4.50;99.90
15103;DHT22;7652;53.584;9.998;2023-03-01T19:00:49;4.30;99.90
15103;DHT22;7652;53.584;9.998;2023-03-01T19:03:52;4.20;99.90
15103;DHT22;7652;53.584;9.998;2023-03-01T19:06:58;4.10;99.90
15103;DHT22;7652;53.584;9.998;2023-03-01T19:10:03;4.00;99.90
15103;DHT22;7652;53.584;9.998;2023-03-01T19:13:06;4.20;99.90
15103;DHT22;7652;53.584;9.998;2023-03-01T19:16:11;4.30;99.90
15103;DHT22;7652;53.584;9.998;2023-03-01T19:19:15;4.10;99.90
15103;DHT22;7652;53.584;9.998;2023-03-01T19:22:19;4.20;99.90
15103;DHT22;7652;53.584;9.998;2023-03-01T19:25:22;4.20;99.90
15103;DHT22;7652;53.584;9.998;2023-03-01T19:28:25;4.10;99.90
15103;DHT22;7652;53.584;9.998;2023-03-01T19:31:28;4.20;99.90
15103;DHT22;7652;53.584;9.998;2023-03-01T19:34:32;4.00;99.90
15103;DHT22;7652;53.584;9.998;2023-03-01T19:37:37;4.00;99.90
15103;DHT22;7652;53.584;9.998;2023-03-01T19:40:40;4.10;99.90
15103;DHT22;7652;53.584;9.998;2023-03-01T19:43:44;4.00;99.90
15103;DHT22;7652;53.584;9.998;2023-03-01T19:46:48;4.20;99.90
15103;DHT22;7652;53.584;9.998;2023-03-01T19:49:51;4.10;99.90
15103;DHT22;7652;53.584;9.998;2023-03-01T19:52:55;4.20;99.90
15103;DHT22;7652;53.584;9.998;2023-03-01T19:55:59;4.20;99.90
15103;DHT22;7652;53.584;9.998;2023-03-01T19:59:03;4.30;99.90
15103;DHT22;7652;53.584;9.998;2023-03-01T20:02:08;4.40;99.90
15103;DHT22;7652;53.584;9.998;2023-03-01T20:05:11;4.50;99.90
15103;DHT22;7652;53.584;9.998;2023-03-01T20:08:15;4.40;99.90
15103;DHT22;7652;53.584;9.998;2023-03-01T20:11:18;4.50;99.90
15103;DHT22;7652;53.584;9.998;2023-03-01T20:14:21;4.40;99.90
15103;DHT22;7652;53.584;9.998;2023-03-01T20:17:25;4.30;99.90
15103;DHT22;7652;53.584;9.998;2023-03-01T20:20:28;4.50;99.90